Bullard, Texas
Current Conditions -  °F | °C
As of 11:53 PM on Sunday 25 Jan 2015 (Local Time) from KTYR Reporting Station
Clear Clear  
Wind Chill: 41°   Ceiling: Unl
Heat Index: 45°   Visibility: 10mi
Dew Point: 28°   Wind: 7mph
Humidity: 52%   Direction: 330°NNW
Pressure: 30.16"   Gusts: NA
Location:  32.14°N, 95.32°W
Report Text: KTYR 260553Z AUTO 33006KT 10SM CLR 07/M02 A3016 RMK AO2 SLP209 T00721022 10150 20072 401890061 51019
Loading
Personal Weather Stations






























Interactive Weather Map New forecast layout! Learn more

10-Day Weather Forecast

Advertisements
Track Severe Weather on mobile